Time;durP1;ratioP1;P1;durP2;ratioP2;P2;SDS_P1;SDS_P2;PMS_P1;PMS_P2;Temp;Humidity;BMP_temperature;BMP_pressure;BME280_temperature;BME280_humidity;BME280_pressure;Samples;Min_cycle;Max_cycle;Signal;HPM_P1;HPM_P2
2022/11/03 00:00:56;;;;;;;15.80;1.77;;;11.70;99.90;;;;;;5071956;28;20032;-52
2022/11/03 00:03:21;;;;;;;14.53;2.67;;;11.70;99.90;;;;;;5068596;28;20270;-53
2022/11/03 00:06:05;;;;;;;15.43;1.77;;;11.70;99.90;;;;;;5073389;28;20282;-50
2022/11/03 00:08:39;;;;;;;12.70;1.92;;;11.80;99.90;;;;;;5077973;28;20040;-50
2022/11/03 00:11:11;;;;;;;10.60;2.33;;;11.80;99.90;;;;;;5079603;28;20043;-50
2022/11/03 00:13:38;;;;;;;12.00;2.00;;;11.80;99.90;;;;;;5078950;28;20464;-52
2022/11/03 00:16:05;;;;;;;10.38;1.75;;;11.80;99.90;;;;;;5084585;28;20085;-51
2022/11/03 00:18:31;;;;;;;12.00;2.08;;;11.80;99.90;;;;;;5079771;28;20151;-52
2022/11/03 00:21:02;;;;;;;11.77;1.55;;;11.80;99.90;;;;;;5082909;28;20036;-51
2022/11/03 00:23:33;;;;;;;11.20;1.98;;;11.80;99.90;;;;;;5078701;28;20506;-50
2022/11/03 00:26:26;;;;;;;22.42;2.45;;;11.80;99.90;;;;;;5078690;28;20039;-51
2022/11/03 00:28:54;;;;;;;11.90;1.67;;;11.80;99.90;;;;;;5076939;28;20048;-51
2022/11/03 00:31:25;;;;;;;15.00;2.33;;;11.80;99.90;;;;;;5080375;28;20040;-52
2022/11/03 00:33:52;;;;;;;8.88;1.60;;;11.80;99.90;;;;;;5079083;28;20032;-54
2022/11/03 00:36:22;;;;;;;10.90;1.75;;;11.70;99.90;;;;;;5082836;28;20082;-51
2022/11/03 00:38:49;;;;;;;12.07;1.80;;;11.70;99.90;;;;;;5078840;28;20140;-52
2022/11/03 00:41:21;;;;;;;5.50;1.15;;;11.70;99.90;;;;;;5081982;28;20054;-50
2022/11/03 00:43:48;;;;;;;13.23;1.95;;;11.70;99.90;;;;;;5078042;28;20036;-50
2022/11/03 00:46:14;;;;;;;13.77;2.17;;;11.70;99.90;;;;;;5081037;28;20051;-52
2022/11/03 00:48:40;;;;;;;11.55;2.05;;;11.70;99.90;;;;;;5079094;28;20485;-51
2022/11/03 00:51:13;;;;;;;15.95;1.75;;;11.70;99.90;;;;;;5080455;28;20123;-51
2022/11/03 00:53:39;;;;;;;11.32;2.20;;;11.70;99.90;;;;;;5081068;28;20075;-51
2022/11/03 00:56:08;;;;;;;13.45;1.90;;;11.60;99.90;;;;;;5084763;28;20105;-50
2022/11/03 00:58:33;;;;;;;19.58;2.75;;;11.70;99.90;;;;;;5078076;28;20540;-50
2022/11/03 01:01:03;;;;;;;9.43;2.42;;;11.70;99.90;;;;;;5079971;28;20138;-50
2022/11/03 01:03:31;;;;;;;18.60;2.90;;;11.70;99.90;;;;;;5079209;28;20068;-50
2022/11/03 01:08:40;;;;;;;10.80;1.65;;;11.80;99.90;;;;;;5080475;28;20124;-54
2022/11/03 01:14:00;;;;;;;10.55;2.08;;;11.80;99.90;;;;;;5077482;28;20091;-51
2022/11/03 01:16:25;;;;;;;9.77;1.70;;;11.80;99.90;;;;;;5082829;28;20577;-53
2022/11/03 01:18:51;;;;;;;12.60;1.45;;;11.80;99.90;;;;;;5083851;28;20039;-52
2022/11/03 01:21:17;;;;;;;12.27;1.58;;;11.70;99.90;;;;;;5083730;28;20131;-53
2022/11/03 01:23:43;;;;;;;8.98;1.33;;;11.70;99.90;;;;;;5085495;28;20178;-54
2022/11/03 01:26:11;;;;;;;9.53;1.67;;;11.70;99.90;;;;;;5080043;28;20032;-50
2022/11/03 01:28:38;;;;;;;13.60;1.90;;;11.70;99.90;;;;;;5081689;28;20274;-50
2022/11/03 01:31:18;;;;;;;11.10;1.40;;;11.70;99.90;;;;;;5083956;28;20025;-51
2022/11/03 01:33:47;;;;;;;14.30;1.58;;;11.70;99.90;;;;;;5083902;28;20064;-51
2022/11/03 01:36:14;;;;;;;17.25;2.88;;;11.70;99.90;;;;;;5090192;28;20189;-51
2022/11/03 01:38:40;;;;;;;10.15;1.80;;;11.80;99.90;;;;;;5086419;28;20047;-51
2022/11/03 01:41:07;;;;;;;;;;;11.80;99.90;;;;;;5081297;28;20044;-52
2022/11/03 01:43:33;;;;;;;13.97;2.43;;;11.80;99.90;;;;;;5084317;28;20383;-50
2022/11/03 01:46:17;;;;;;;15.23;1.92;;;11.80;99.90;;;;;;5085309;28;20036;-50
2022/11/03 01:49:08;;;;;;;14.98;1.60;;;11.80;99.90;;;;;;5086108;28;20489;-51
2022/11/03 01:51:35;;;;;;;11.35;1.73;;;11.80;99.90;;;;;;5081919;28;20124;-51
2022/11/03 01:54:06;;;;;;;12.25;1.63;;;11.80;99.90;;;;;;5083703;28;20558;-52
2022/11/03 01:56:34;;;;;;;17.20;2.58;;;11.80;99.90;;;;;;5083627;28;20063;-52
2022/11/03 01:59:01;;;;;;;20.83;3.08;;;11.80;99.90;;;;;;5080824;28;20503;-50
2022/11/03 02:01:27;;;;;;;12.45;2.08;;;11.80;99.90;;;;;;5081515;28;20036;-50
2022/11/03 02:04:09;;;;;;;14.25;2.40;;;11.80;99.90;;;;;;5083313;28;20538;-50
2022/11/03 02:06:35;;;;;;;11.45;2.17;;;11.80;99.90;;;;;;5080580;28;20041;-51
2022/11/03 02:09:04;;;;;;;13.25;1.65;;;11.80;99.90;;;;;;5086648;28;20121;-51
2022/11/03 02:14:16;;;;;;;9.23;2.00;;;11.70;99.90;;;;;;5083105;28;20473;-53
2022/11/03 02:16:54;;;;;;;8.23;1.70;;;11.70;99.90;;;;;;5087364;28;20078;-50
2022/11/03 02:19:55;;;;;;;17.42;2.08;;;11.70;99.90;;;;;;5086275;28;20115;-50
2022/11/03 02:22:52;;;;;;;11.10;1.80;;;11.70;99.90;;;;;;5083166;28;20455;-50
2022/11/03 02:25:39;;;;;;;15.30;2.35;;;11.70;99.90;;;;;;5083007;28;20137;-51
2022/11/03 02:28:05;;;;;;;15.65;1.73;;;11.70;99.90;;;;;;5087256;28;20259;-50
2022/11/03 02:31:13;;;;;;;15.07;2.20;;;11.70;99.90;;;;;;5080324;28;20513;-53
2022/11/03 02:33:39;;;;;;;;;;;11.70;99.90;;;;;;5062674;28;20052;-51
2022/11/03 02:36:19;;;;;;;9.65;2.00;;;11.70;99.90;;;;;;5083605;28;19915;-50
2022/11/03 02:38:57;;;;;;;11.43;1.75;;;11.70;99.90;;;;;;5087418;28;20035;-51
2022/11/03 02:41:23;;;;;;;11.35;1.27;;;11.60;99.90;;;;;;5082761;28;20050;-51
2022/11/03 02:43:51;;;;;;;11.43;2.38;;;11.60;99.90;;;;;;5079017;28;20051;-53
2022/11/03 02:46:18;;;;;;;10.48;1.55;;;11.60;99.90;;;;;;5083147;28;20047;-50
2022/11/03 02:48:44;;;;;;;7.85;2.17;;;11.60;99.90;;;;;;5083819;28;20040;-52
2022/11/03 02:51:10;;;;;;;15.82;2.50;;;11.60;99.90;;;;;;5081479;28;20517;-50
2022/11/03 02:53:41;;;;;;;9.07;1.75;;;11.60;99.90;;;;;;5081054;28;20043;-49
2022/11/03 02:56:17;;;;;;;18.88;1.67;;;11.60;99.90;;;;;;5083124;28;20040;-50
2022/11/03 02:58:57;;;;;;;14.60;2.28;;;11.60;99.90;;;;;;5083873;28;20108;-52
2022/11/03 03:01:46;;;;;;;12.80;2.08;;;11.60;99.90;;;;;;5081927;28;20116;-50
2022/11/03 03:04:27;;;;;;;7.13;1.70;;;11.60;99.90;;;;;;5079075;28;20068;-51
2022/11/03 03:07:06;;;;;;;10.02;2.13;;;11.70;99.90;;;;;;5083887;28;20040;-52
2022/11/03 03:09:43;;;;;;;12.15;2.22;;;11.70;99.90;;;;;;5083336;28;20592;-52
2022/11/03 03:12:11;;;;;;;17.23;2.08;;;11.70;99.90;;;;;;5078534;28;20036;-52
2022/11/03 03:14:40;;;;;;;13.77;3.03;;;11.70;99.90;;;;;;5080623;28;20041;-54
2022/11/03 03:17:18;;;;;;;11.20;2.70;;;11.70;99.90;;;;;;5082913;28;20506;-51
2022/11/03 03:19:59;;;;;;;13.60;1.75;;;11.70;99.90;;;;;;5079758;28;20040;-50
2022/11/03 03:22:38;;;;;;;13.68;1.85;;;11.70;99.90;;;;;;5081938;28;20032;-52
2022/11/03 03:25:28;;;;;;;12.05;1.63;;;11.80;99.90;;;;;;5081274;28;20119;-54
2022/11/03 03:28:01;;;;;;;10.52;1.90;;;11.80;99.90;;;;;;5080698;28;20041;-51
2022/11/03 03:30:29;;;;;;;15.48;1.83;;;11.80;99.90;;;;;;5080926;28;20029;-53
2022/11/03 03:32:57;;;;;;;14.25;2.10;;;11.80;99.90;;;;;;5080406;28;20095;-53
2022/11/03 03:35:29;;;;;;;16.02;2.42;;;11.70;99.90;;;;;;5080006;28;20066;-52
2022/11/03 03:37:59;;;;;;;10.75;1.52;;;11.70;99.90;;;;;;5078852;28;20036;-54
2022/11/03 03:40:35;;;;;;;11.55;2.20;;;11.70;99.90;;;;;;5079006;28;20313;-52
2022/11/03 03:43:03;;;;;;;12.07;1.67;;;11.70;99.90;;;;;;5081114;28;20333;-53
2022/11/03 03:45:30;;;;;;;16.77;2.47;;;11.70;99.90;;;;;;5079494;28;20051;-53
2022/11/03 03:47:56;;;;;;;20.65;2.42;;;11.70;99.90;;;;;;5083390;28;20089;-50
2022/11/03 03:50:25;;;;;;;12.43;2.85;;;11.70;99.90;;;;;;5081892;28;20090;-50
2022/11/03 03:52:59;;;;;;;14.93;2.35;;;11.70;99.90;;;;;;5079138;28;20036;-51
2022/11/03 03:55:34;;;;;;;10.32;2.42;;;11.70;99.90;;;;;;5079152;28;20123;-52
2022/11/03 03:58:00;;;;;;;18.23;2.40;;;11.60;99.90;;;;;;5083535;28;20050;-50
2022/11/03 04:00:25;;;;;;;9.27;1.85;;;11.60;99.90;;;;;;5079331;28;20123;-52
2022/11/03 04:02:51;;;;;;;8.37;1.97;;;11.60;99.90;;;;;;5080591;28;20036;-53
2022/11/03 04:05:16;;;;;;;15.40;2.47;;;11.60;99.90;;;;;;5082519;28;20498;-50
2022/11/03 04:07:48;;;;;;;6.87;1.57;;;11.60;99.90;;;;;;5081020;28;20035;-53
2022/11/03 04:10:19;;;;;;;16.08;2.13;;;11.60;99.90;;;;;;5079860;28;20120;-52
2022/11/03 04:23:44;;;;;;;11.93;1.80;;;11.50;99.90;;;;;;5083652;28;20449;-52
2022/11/03 04:26:13;;;;;;;14.17;2.47;;;11.50;99.90;;;;;;5080886;28;20134;-52
2022/11/03 04:28:40;;;;;;;11.85;2.00;;;11.50;99.90;;;;;;5081064;28;20039;-50
2022/11/03 04:31:09;;;;;;;11.10;2.22;;;11.50;99.90;;;;;;5078785;28;20030;-50
2022/11/03 04:33:34;;;;;;;20.73;2.13;;;11.50;99.90;;;;;;5082346;28;20400;-50
2022/11/03 04:36:00;;;;;;;9.27;1.50;;;11.50;99.90;;;;;;5084928;28;20028;-52
2022/11/03 04:38:27;;;;;;;11.30;2.20;;;11.50;99.90;;;;;;5081102;28;20251;-51
2022/11/03 04:40:55;;;;;;;7.30;1.83;;;11.50;99.90;;;;;;5079437;28;20044;-50
2022/11/03 04:43:28;;;;;;;12.20;1.88;;;11.50;99.90;;;;;;5082853;28;20550;-51
2022/11/03 04:45:54;;;;;;;12.05;2.22;;;11.50;99.90;;;;;;5079380;28;20466;-49
2022/11/03 04:48:24;;;;;;;8.70;2.10;;;11.50;99.90;;;;;;5084530;28;20089;-51
2022/11/03 04:50:55;;;;;;;18.95;2.45;;;11.50;99.90;;;;;;5078066;28;20064;-54
2022/11/03 04:53:22;;;;;;;12.48;1.90;;;11.50;99.90;;;;;;5083060;28;20397;-50
2022/11/03 04:55:50;;;;;;;9.27;1.73;;;11.50;99.90;;;;;;5080745;28;20055;-50
2022/11/03 04:58:21;;;;;;;14.55;3.25;;;11.50;99.90;;;;;;5087065;28;20046;-50
2022/11/03 05:00:53;;;;;;;10.73;1.70;;;11.50;99.90;;;;;;5082510;28;20039;-52
2022/11/03 05:03:24;;;;;;;9.65;2.72;;;11.50;99.90;;;;;;5084158;28;20467;-53
2022/11/03 05:05:50;;;;;;;10.10;1.60;;;11.50;99.90;;;;;;5081884;28;20044;-50
2022/11/03 05:08:19;;;;;;;18.42;2.88;;;11.50;99.90;;;;;;5086178;28;20036;-50
2022/11/03 05:10:46;;;;;;;10.80;2.17;;;11.50;99.90;;;;;;5084614;28;20040;-51
2022/11/03 05:13:25;;;;;;;9.40;1.42;;;11.50;99.90;;;;;;5081803;28;20062;-52
2022/11/03 05:15:52;;;;;;;14.65;2.40;;;11.50;99.90;;;;;;5087112;28;20047;-53
2022/11/03 05:18:20;;;;;;;8.60;1.52;;;11.50;99.90;;;;;;5084741;28;20542;-50
2022/11/03 05:20:59;;;;;;;8.52;1.90;;;11.60;99.90;;;;;;5085041;28;20090;-50
2022/11/03 05:23:28;;;;;;;12.82;1.88;;;11.60;99.90;;;;;;5083697;28;20075;-54
2022/11/03 05:25:57;;;;;;;10.27;1.73;;;11.60;99.90;;;;;;5085795;28;20431;-53
2022/11/03 05:28:32;;;;;;;11.25;2.38;;;11.60;99.90;;;;;;5083316;28;20076;-52
2022/11/03 05:30:58;;;;;;;9.82;1.58;;;11.70;99.90;;;;;;5084874;28;20043;-51
2022/11/03 05:33:33;;;;;;;14.45;2.08;;;11.70;99.90;;;;;;5083652;28;20086;-50
2022/11/03 05:36:12;;;;;;;14.57;2.50;;;11.70;99.90;;;;;;5083460;28;20029;-52
2022/11/03 05:38:38;;;;;;;14.43;2.33;;;11.80;99.90;;;;;;5087019;28;20032;-50
2022/11/03 05:41:14;;;;;;;7.13;2.10;;;11.70;99.90;;;;;;5085207;28;20039;-51
2022/11/03 05:43:39;;;;;;;10.00;2.17;;;11.80;99.90;;;;;;5088199;28;20024;-50
2022/11/03 05:46:08;;;;;;;10.87;1.93;;;11.90;99.90;;;;;;5081950;28;20063;-50
2022/11/03 05:48:37;;;;;;;13.15;2.10;;;11.90;99.90;;;;;;5089964;28;20032;-50
2022/11/03 05:51:16;;;;;;;10.15;1.50;;;11.90;99.90;;;;;;5082021;28;20081;-53
2022/11/03 05:53:42;;;;;;;13.38;2.50;;;11.90;99.90;;;;;;5085764;28;20077;-51
2022/11/03 05:56:16;;;;;;;6.60;1.50;;;11.90;99.90;;;;;;5081545;28;20492;-50
2022/11/03 05:58:43;;;;;;;12.40;2.72;;;11.90;99.90;;;;;;5080459;28;20118;-54
2022/11/03 06:01:21;;;;;;;10.82;2.30;;;11.90;99.90;;;;;;5083327;28;20047;-52
2022/11/03 06:03:47;;;;;;;8.75;1.80;;;11.90;99.90;;;;;;5083200;28;20048;-53
2022/11/03 06:06:20;;;;;;;9.07;1.70;;;11.90;99.90;;;;;;5088518;28;20044;-51
2022/11/03 06:08:46;;;;;;;8.55;1.80;;;11.90;99.90;;;;;;5079513;28;20141;-53
2022/11/03 06:11:35;;;;;;;10.00;2.13;;;11.90;99.90;;;;;;5083736;28;20028;-50
2022/11/03 06:14:17;;;;;;;13.73;2.08;;;11.80;99.90;;;;;;5073869;28;20540;-52
2022/11/03 06:16:46;;;;;;;10.23;2.20;;;11.90;99.90;;;;;;5082992;28;20028;-51
2022/11/03 06:19:24;;;;;;;9.13;2.42;;;11.80;99.90;;;;;;5080914;28;20036;-54
2022/11/03 06:21:52;;;;;;;13.35;2.85;;;11.90;99.90;;;;;;5086553;28;20047;-54
2022/11/03 06:24:21;;;;;;;13.10;1.85;;;11.80;99.90;;;;;;5083192;28;20370;-54
2022/11/03 06:26:48;;;;;;;7.97;1.98;;;11.80;99.90;;;;;;5082109;28;20202;-51
2022/11/03 06:29:15;;;;;;;16.92;2.42;;;11.80;99.90;;;;;;5080779;28;20048;-50
2022/11/03 06:31:45;;;;;;;15.10;3.42;;;11.90;99.90;;;;;;5084095;28;20046;-51
2022/11/03 06:34:26;;;;;;;16.02;2.40;;;11.90;99.90;;;;;;5087343;28;20040;-50
2022/11/03 06:36:52;;;;;;;14.65;2.88;;;11.90;99.90;;;;;;5080870;28;20029;-53
2022/11/03 06:39:22;;;;;;;8.27;1.50;;;11.90;99.90;;;;;;5080900;28;20063;-52
2022/11/03 06:41:48;;;;;;;8.15;1.83;;;11.90;99.90;;;;;;5080837;28;20044;-50
2022/11/03 06:44:18;;;;;;;12.27;2.38;;;11.90;99.90;;;;;;5090483;28;20629;-52
2022/11/03 06:46:44;;;;;;;15.30;1.92;;;11.90;99.90;;;;;;5082265;28;20035;-53
2022/11/03 06:49:28;;;;;;;7.73;1.67;;;11.90;99.90;;;;;;5082499;28;20043;-50
2022/11/03 06:51:55;;;;;;;13.32;2.08;;;11.90;99.90;;;;;;5080792;28;20032;-51
2022/11/03 06:54:21;;;;;;;11.45;2.45;;;11.90;99.90;;;;;;5083359;28;20097;-50
2022/11/03 06:56:47;;;;;;;17.77;2.85;;;11.90;99.90;;;;;;5078371;28;20045;-51
2022/11/03 06:59:14;;;;;;;10.07;1.50;;;11.90;99.90;;;;;;5083436;28;20039;-51
2022/11/03 07:01:40;;;;;;;11.13;2.85;;;11.90;99.90;;;;;;5081606;28;20812;-50
2022/11/03 07:04:18;;;;;;;14.55;2.35;;;11.90;99.90;;;;;;5085765;28;20037;-51
2022/11/03 07:06:44;;;;;;;13.93;1.35;;;11.90;99.90;;;;;;5080175;28;20397;-51
2022/11/03 07:09:18;;;;;;;15.95;2.42;;;12.00;99.90;;;;;;5080073;28;20033;-50
2022/11/03 07:11:49;;;;;;;7.50;1.60;;;12.00;99.90;;;;;;5086138;28;20058;-51
2022/11/03 07:14:20;;;;;;;13.13;1.88;;;12.00;99.90;;;;;;5079140;28;20071;-52
2022/11/03 07:16:49;;;;;;;10.20;1.65;;;12.00;99.90;;;;;;5084944;28;20040;-49
2022/11/03 07:19:18;;;;;;;7.88;1.55;;;12.00;99.90;;;;;;5080506;28;20094;-50
2022/11/03 07:21:54;;;;;;;13.57;1.70;;;12.00;99.90;;;;;;5082716;28;20094;-50
2022/11/03 07:24:23;;;;;;;8.63;2.38;;;12.10;99.90;;;;;;5080474;28;20037;-50
2022/11/03 07:26:58;;;;;;;9.23;1.98;;;12.10;99.90;;;;;;5082539;28;20482;-53
2022/11/03 07:29:27;;;;;;;10.63;1.67;;;12.10;99.90;;;;;;5080703;28;20031;-53
2022/11/03 07:31:53;;;;;;;6.63;2.47;;;12.10;99.90;;;;;;5087959;28;20033;-51
2022/11/03 07:34:22;;;;;;;11.48;2.53;;;12.20;99.90;;;;;;5079339;28;20036;-51
2022/11/03 07:36:49;;;;;;;18.02;2.95;;;12.20;99.90;;;;;;5081827;28;20043;-51
2022/11/03 07:39:18;;;;;;;12.00;2.13;;;12.20;99.90;;;;;;5080443;28;20119;-50
2022/11/03 07:41:44;;;;;;;13.60;2.83;;;12.30;99.90;;;;;;5081086;28;20040;-52
2022/11/03 07:44:19;;;;;;;11.40;2.33;;;12.30;99.90;;;;;;5079181;28;20085;-50
2022/11/03 07:46:45;;;;;;;9.40;1.58;;;12.30;99.90;;;;;;5083231;28;20044;-54
2022/11/03 07:49:23;;;;;;;13.00;2.67;;;12.30;99.90;;;;;;5085356;28;20067;-54
2022/11/03 07:51:49;;;;;;;8.82;1.70;;;12.40;99.90;;;;;;5079137;28;20032;-52
2022/11/03 07:54:19;;;;;;;10.88;2.35;;;12.40;99.90;;;;;;5081733;28;20043;-52
2022/11/03 07:56:49;;;;;;;22.73;3.20;;;12.40;99.90;;;;;;5081001;28;20082;-50
2022/11/03 07:59:20;;;;;;;13.65;2.13;;;12.50;99.90;;;;;;5079735;28;20047;-50
2022/11/03 08:01:48;;;;;;;15.32;3.42;;;12.50;99.90;;;;;;5078417;28;20043;-53
2022/11/03 08:04:33;;;;;;;14.63;3.05;;;12.50;99.90;;;;;;5078232;28;20043;-51
2022/11/03 08:06:58;;;;;;;9.60;1.38;;;12.60;99.90;;;;;;5079771;28;20070;-51
2022/11/03 08:09:24;;;;;;;9.05;1.88;;;12.60;99.90;;;;;;5080820;28;20489;-53
2022/11/03 08:11:50;;;;;;;13.50;2.17;;;12.70;99.90;;;;;;5078840;28;20555;-54
2022/11/03 08:14:16;;;;;;;12.32;2.25;;;12.70;99.90;;;;;;5080585;28;20066;-54
2022/11/03 08:16:42;;;;;;;13.45;2.28;;;12.80;99.90;;;;;;5078350;28;20036;-54
2022/11/03 08:19:07;;;;;;;9.45;2.03;;;12.90;99.90;;;;;;5087314;28;20083;-51
2022/11/03 08:21:33;;;;;;;16.38;2.95;;;13.00;99.90;;;;;;5078154;28;20504;-51
2022/11/03 08:23:59;;;;;;;13.40;1.88;;;13.00;99.90;;;;;;5082167;28;20039;-55
2022/11/03 08:26:25;;;;;;;14.82;2.53;;;13.10;99.90;;;;;;5076638;28;20393;-54
2022/11/03 08:28:51;;;;;;;11.10;2.55;;;13.20;99.90;;;;;;5078462;28;20036;-55
2022/11/03 08:31:16;;;;;;;15.55;2.67;;;13.20;99.90;;;;;;5084358;28;20081;-51
2022/11/03 08:33:42;;;;;;;10.98;2.15;;;13.30;99.90;;;;;;5079350;28;20545;-54
2022/11/03 08:36:08;;;;;;;14.20;2.05;;;13.40;99.90;;;;;;5081615;28;20047;-54
2022/11/03 08:38:34;;;;;;;10.13;1.92;;;13.40;99.90;;;;;;5078724;28;20037;-55
2022/11/03 08:40:59;;;;;;;12.98;2.28;;;13.50;99.90;;;;;;5079239;28;20028;-54
2022/11/03 08:43:25;;;;;;;17.55;2.42;;;13.40;99.90;;;;;;5079600;28;20042;-52
2022/11/03 08:45:52;;;;;;;5.22;1.48;;;13.50;99.90;;;;;;5081218;28;20036;-54
2022/11/03 08:48:26;;;;;;;9.73;2.15;;;13.50;99.90;;;;;;5077746;28;20106;-53
2022/11/03 08:50:53;;;;;;;8.63;1.85;;;13.60;99.90;;;;;;5082013;28;20037;-53
2022/11/03 08:53:22;;;;;;;8.73;1.85;;;13.60;99.90;;;;;;5079017;28;20043;-51
2022/11/03 08:55:48;;;;;;;8.00;1.85;;;13.60;99.90;;;;;;5081512;28;20048;-52
2022/11/03 08:58:13;;;;;;;12.40;2.23;;;13.70;99.90;;;;;;5077503;28;20041;-51
2022/11/03 09:00:39;;;;;;;18.17;2.30;;;13.60;99.90;;;;;;5082612;28;20058;-51
2022/11/03 09:03:04;;;;;;;7.90;1.75;;;13.70;99.90;;;;;;5077759;28;20081;-52
2022/11/03 09:05:30;;;;;;;10.85;1.92;;;13.70;99.90;;;;;;5081184;28;20040;-50
2022/11/03 09:07:55;;;;;;;8.20;2.37;;;13.70;99.90;;;;;;5077217;28;20106;-50
2022/11/03 09:10:21;;;;;;;10.52;2.30;;;13.70;99.90;;;;;;5077872;28;20328;-51
2022/11/03 09:12:47;;;;;;;9.95;1.92;;;13.70;99.90;;;;;;5081713;28;20582;-53
2022/11/03 09:15:12;;;;;;;11.80;1.80;;;13.70;99.90;;;;;;5079869;28;20143;-52
2022/11/03 09:17:38;;;;;;;7.45;1.38;;;13.70;99.90;;;;;;5080455;28;20059;-52
2022/11/03 09:20:05;;;;;;;10.20;2.10;;;13.80;99.90;;;;;;5078303;28;20055;-51
2022/11/03 09:22:30;;;;;;;16.85;2.38;;;13.80;99.90;;;;;;5083951;28;20036;-50
2022/11/03 09:24:56;;;;;;;10.75;1.98;;;13.90;99.90;;;;;;5078689;28;20039;-50
2022/11/03 09:27:22;;;;;;;12.93;2.15;;;14.10;99.90;;;;;;5079851;28;20039;-50
2022/11/03 09:29:48;;;;;;;12.18;2.10;;;14.20;99.90;;;;;;5077623;28;20044;-53
2022/11/03 09:32:13;;;;;;;8.38;1.10;;;14.30;99.90;;;;;;5076531;28;20500;-52
2022/11/03 09:34:39;;;;;;;11.93;1.90;;;14.40;99.90;;;;;;5078306;28;20032;-50
2022/11/03 09:37:04;;;;;;;14.68;2.88;;;14.60;99.90;;;;;;5080795;28;20036;-50
2022/11/03 09:39:30;;;;;;;11.82;2.10;;;14.80;99.90;;;;;;5101870;28;20035;-52
2022/11/03 09:41:57;;;;;;;14.95;1.83;;;14.90;99.90;;;;;;5098107;28;20515;-51
2022/11/03 09:44:23;;;;;;;;;;;15.10;99.90;;;;;;5106177;28;20124;-53
2022/11/03 09:46:50;;;;;;;7.13;1.33;;;15.20;99.90;;;;;;5109245;28;20447;-50
2022/11/03 09:49:17;;;;;;;10.45;1.50;;;15.30;99.90;;;;;;5093019;28;20067;-50
2022/11/03 09:51:44;;;;;;;8.27;1.60;;;15.30;99.90;;;;;;5093896;28;20036;-50
2022/11/03 09:54:11;;;;;;;;;;;15.40;99.90;;;;;;5092975;28;20047;-51
2022/11/03 09:56:37;;;;;;;8.93;1.40;;;15.40;99.90;;;;;;5092967;28;19926;-51
2022/11/03 09:59:23;;;;;;;11.93;2.33;;;15.40;99.90;;;;;;5107745;28;20036;-50
2022/11/03 10:01:52;;;;;;;23.02;2.92;;;15.50;99.90;;;;;;5091959;28;20051;-50
2022/11/03 10:04:30;;;;;;;7.30;1.75;;;15.60;99.90;;;;;;5092554;28;20195;-50
2022/11/03 10:06:57;;;;;;;6.63;1.75;;;15.60;99.90;;;;;;5102916;28;20046;-53
2022/11/03 10:09:24;;;;;;;8.40;0.98;;;15.70;99.90;;;;;;5113868;28;20036;-54
2022/11/03 10:11:52;;;;;;;6.55;1.17;;;15.70;99.90;;;;;;5105149;28;20493;-51
2022/11/03 10:14:18;;;;;;;14.18;1.88;;;15.80;99.90;;;;;;5105721;28;20086;-53
2022/11/03 10:16:49;;;;;;;;;;;15.70;99.90;;;;;;5108201;28;20097;-53
2022/11/03 10:19:14;;;;;;;10.90;1.55;;;15.60;99.90;;;;;;5093569;28;20475;-52
2022/11/03 10:21:42;;;;;;;10.48;2.10;;;15.60;99.90;;;;;;5092633;28;20123;-51
2022/11/03 10:24:13;;;;;;;9.55;1.58;;;15.50;99.90;;;;;;5100333;28;20087;-52
2022/11/03 10:26:51;;;;;;;8.90;1.80;;;15.40;99.90;;;;;;5072448;28;20044;-52
2022/11/03 10:29:27;;;;;;;10.85;2.53;;;15.40;99.90;;;;;;5081849;28;20393;-50
2022/11/03 10:31:57;;;;;;;6.93;1.27;;;15.40;99.90;;;;;;5072332;28;20037;-52
2022/11/03 10:34:38;;;;;;;7.25;1.05;;;15.50;99.90;;;;;;5085426;28;20039;-51
2022/11/03 10:37:09;;;;;;;11.30;1.42;;;15.60;99.90;;;;;;5072263;28;20040;-53
2022/11/03 10:39:34;;;;;;;8.35;1.73;;;15.70;99.90;;;;;;5071781;28;20051;-55
2022/11/03 10:42:00;;;;;;;9.33;1.53;;;15.80;99.90;;;;;;5112117;28;20039;-54
2022/11/03 10:44:27;;;;;;;8.70;1.13;;;15.80;99.90;;;;;;5102794;28;20289;-53
2022/11/03 10:47:04;;;;;;;6.07;1.02;;;15.80;99.90;;;;;;5093611;28;20032;-54
2022/11/03 10:49:37;;;;;;;6.60;1.73;;;15.80;99.90;;;;;;5087320;28;20028;-53
2022/11/03 10:52:25;;;;;;;7.10;1.17;;;15.90;99.90;;;;;;5089914;28;20068;-53
2022/11/03 10:54:53;;;;;;;12.13;1.20;;;16.00;99.90;;;;;;5087160;28;20108;-55
2022/11/03 10:57:20;;;;;;;6.15;0.93;;;16.20;99.90;;;;;;5099768;28;20074;-53
2022/11/03 10:59:48;;;;;;;12.88;1.95;;;16.30;99.90;;;;;;5098623;28;20044;-53
2022/11/03 11:02:24;;;;;;;4.60;1.08;;;16.30;99.90;;;;;;5087699;28;20047;-54
2022/11/03 11:04:58;;;;;;;12.13;1.85;;;16.40;99.90;;;;;;5085935;28;20028;-53
2022/11/03 11:07:38;;;;;;;10.80;1.80;;;16.30;99.90;;;;;;5087597;28;20071;-54
2022/11/03 11:10:14;;;;;;;7.47;1.15;;;16.30;99.90;;;;;;5086880;28;20039;-55
2022/11/03 11:13:20;;;;;;;11.75;1.77;;;16.20;99.60;;;;;;5087323;28;20071;-54
2022/11/03 11:16:00;;;;;;;8.77;0.98;;;16.10;99.40;;;;;;5087280;28;20051;-54
2022/11/03 11:18:28;;;;;;;9.43;1.48;;;16.00;99.80;;;;;;5086632;28;20109;-54
2022/11/03 11:21:14;;;;;;;10.35;1.42;;;15.90;99.60;;;;;;5087282;28;20089;-54
2022/11/03 11:23:40;;;;;;;4.53;1.08;;;15.80;99.50;;;;;;5065052;28;20485;-55
2022/11/03 11:26:09;;;;;;;;;;;15.70;99.90;;;;;;5096906;28;20343;-50
2022/11/03 11:28:45;;;;;;;6.75;1.25;;;15.60;99.90;;;;;;5106345;28;19960;-54
2022/11/03 11:31:17;;;;;;;;;;;15.60;99.90;;;;;;5094728;28;20072;-50
2022/11/03 11:33:43;;;;;;;8.60;1.33;;;15.50;99.90;;;;;;5087314;28;20364;-55
2022/11/03 11:36:23;;;;;;;8.33;1.23;;;15.40;99.90;;;;;;5087689;28;20036;-51
2022/11/03 11:38:50;;;;;;;3.67;0.55;;;15.40;99.90;;;;;;5086782;28;20327;-54
2022/11/03 11:41:15;;;;;;;9.30;1.33;;;15.30;99.90;;;;;;5087624;28;20446;-51
2022/11/03 11:43:41;;;;;;;5.57;1.20;;;15.30;99.90;;;;;;5083629;28;20115;-52
2022/11/03 11:46:22;;;;;;;6.93;1.63;;;15.20;99.90;;;;;;5084442;28;20112;-52
2022/11/03 11:49:12;;;;;;;6.13;1.15;;;15.20;99.90;;;;;;5073383;28;20282;-51
2022/11/03 11:51:37;;;;;;;6.15;1.38;;;15.10;99.90;;;;;;5077220;28;20044;-51
2022/11/03 11:54:10;;;;;;;8.40;1.77;;;15.10;99.90;;;;;;5087348;28;20368;-53
2022/11/03 11:56:41;;;;;;;10.55;1.30;;;15.00;99.90;;;;;;5085512;28;20033;-54
2022/11/03 11:59:22;;;;;;;8.48;1.42;;;15.00;99.90;;;;;;5066230;28;20054;-53
2022/11/03 12:01:50;;;;;;;4.40;1.05;;;15.00;99.90;;;;;;5081321;28;20048;-50
2022/11/03 12:04:32;;;;;;;9.23;1.67;;;15.00;99.90;;;;;;5084031;28;20051;-50
2022/11/03 12:06:57;;;;;;;5.88;1.38;;;15.00;99.90;;;;;;5092039;28;20040;-51
2022/11/03 12:09:27;;;;;;;9.52;1.73;;;15.00;99.90;;;;;;5088253;28;20032;-50
2022/11/03 12:12:01;;;;;;;8.48;1.50;;;14.90;99.90;;;;;;5085400;28;20041;-51
2022/11/03 12:14:35;;;;;;;5.30;1.17;;;14.90;99.90;;;;;;5065704;28;20119;-53
2022/11/03 12:17:13;;;;;;;5.45;1.08;;;14.90;99.90;;;;;;5086078;28;20101;-54
2022/11/03 12:19:43;;;;;;;7.80;1.15;;;14.90;99.90;;;;;;5086214;28;20404;-50
2022/11/03 12:22:39;;;;;;;6.43;0.90;;;14.90;99.90;;;;;;5083476;28;20135;-54
2022/11/03 12:25:25;;;;;;;8.23;1.33;;;15.00;99.90;;;;;;5078092;28;20055;-52
2022/11/03 12:27:51;;;;;;;6.80;1.10;;;14.90;99.90;;;;;;5095381;28;20155;-51
2022/11/03 12:30:18;;;;;;;7.70;1.77;;;15.00;99.90;;;;;;5095239;28;20353;-54
2022/11/03 12:32:44;;;;;;;7.03;1.30;;;14.90;99.90;;;;;;5096593;28;20354;-54
2022/11/03 12:35:12;;;;;;;5.40;1.67;;;14.90;99.90;;;;;;5094352;28;20039;-52
2022/11/03 12:37:38;;;;;;;5.07;1.00;;;14.90;99.90;;;;;;5093195;28;20043;-53
2022/11/03 12:40:05;;;;;;;4.32;1.13;;;14.90;99.90;;;;;;5095317;28;20486;-51
2022/11/03 12:42:30;;;;;;;7.05;1.13;;;15.00;99.90;;;;;;5093459;28;20213;-52
2022/11/03 12:44:56;;;;;;;7.97;1.45;;;15.10;99.90;;;;;;5097133;28;20032;-51
2022/11/03 12:47:22;;;;;;;6.75;1.88;;;15.10;99.90;;;;;;5097013;28;20036;-53
2022/11/03 12:49:47;;;;;;;9.32;0.95;;;15.20;99.90;;;;;;5083296;28;20059;-52
2022/11/03 12:52:13;;;;;;;4.50;1.05;;;15.30;99.90;;;;;;5082774;28;20050;-53
2022/11/03 12:54:40;;;;;;;10.05;0.95;;;15.60;99.90;;;;;;5085315;28;20036;-54
2022/11/03 12:57:06;;;;;;;9.90;1.95;;;16.00;99.60;;;;;;5084990;28;20036;-54
2022/11/03 12:59:32;;;;;;;8.80;1.10;;;16.30;99.40;;;;;;5085622;28;20036;-54
2022/11/03 13:01:57;;;;;;;4.93;1.10;;;16.40;98.60;;;;;;5086013;28;20517;-51
2022/11/03 13:04:23;;;;;;;6.28;1.33;;;16.40;98.50;;;;;;5085010;28;20042;-55
2022/11/03 13:06:48;;;;;;;3.83;0.65;;;16.40;98.70;;;;;;5085474;28;20047;-52
2022/11/03 13:09:14;;;;;;;6.55;0.95;;;16.20;98.20;;;;;;5085434;28;20120;-54
2022/11/03 13:14:25;;;;;;;8.02;0.88;;;16.00;98.40;;;;;;5088873;28;20044;-54
2022/11/03 13:16:51;;;;;;;10.05;1.08;;;15.90;98.60;;;;;;5090095;28;20382;-54
2022/11/03 13:19:16;;;;;;;4.60;0.80;;;15.80;99.00;;;;;;5089381;28;20105;-53
2022/11/03 13:21:42;;;;;;;6.03;0.57;;;15.80;98.50;;;;;;5089900;28;20509;-54